AIQ660 VTBD-VVPQ
Flight info
| Callsign | AIQ660 |
|---|---|
| Flight time | 0h 53m |
| Altitude | 33000 |
| Route | RYN3C RYN R334 NUMDI NUMDI1F |
| Aircraft | A320/M-SDE3FGHIRWY/LB1 |
Departure
| Time | 2026-04-21 18:30 |
|---|---|
| Airport | Don Mueang International Airport (VTBD) |
Arrival
| Time | 2026-04-21 19:23 |
|---|---|
| Airport | Phú Quốc International Airport (VVPQ) |
| Time | Latitude | Longitude | Altitude | Speed | Heading |
|---|---|---|---|---|---|
| 2026-04-21 17:37 | 13.91846 | 100.60437 | 17 ft | 0 kts | 209° |
| 2026-04-21 18:19 | 13.91854 | 100.60442 | 17 ft | 4 kts | 207° |
| 2026-04-21 18:19 | 13.91879 | 100.60453 | 19 ft | 4 kts | 197° |
| 2026-04-21 18:19 | 13.91905 | 100.60458 | 18 ft | 4 kts | 172° |
| 2026-04-21 18:19 | 13.91924 | 100.60449 | 18 ft | 2 kts | 119° |
| 2026-04-21 18:20 | 13.91926 | 100.60445 | 20 ft | 0 kts | 119° |
| 2026-04-21 18:21 | 13.91924 | 100.60450 | 18 ft | 2 kts | 119° |
| 2026-04-21 18:22 | 13.91913 | 100.60470 | 20 ft | 5 kts | 119° |
| 2026-04-21 18:22 | 13.91892 | 100.60508 | 17 ft | 8 kts | 120° |
| 2026-04-21 18:22 | 13.91858 | 100.60565 | 18 ft | 11 kts | 120° |
| 2026-04-21 18:22 | 13.91881 | 100.60628 | 17 ft | 12 kts | 29° |
| 2026-04-21 18:23 | 13.91961 | 100.60673 | 18 ft | 14 kts | 28° |
| 2026-04-21 18:23 | 13.92057 | 100.60727 | 21 ft | 17 kts | 29° |
| 2026-04-21 18:23 | 13.92171 | 100.60791 | 19 ft | 20 kts | 28° |
| 2026-04-21 18:23 | 13.92300 | 100.60863 | 19 ft | 23 kts | 28° |
| 2026-04-21 18:24 | 13.92443 | 100.60943 | 17 ft | 24 kts | 28° |
| 2026-04-21 18:24 | 13.92577 | 100.61018 | 17 ft | 16 kts | 28° |
| 2026-04-21 18:24 | 13.92651 | 100.61071 | 18 ft | 9 kts | 64° |
| 2026-04-21 18:24 | 13.92634 | 100.61124 | 17 ft | 8 kts | 120° |
| 2026-04-21 18:25 | 13.92601 | 100.61185 | 16 ft | 11 kts | 119° |
| 2026-04-21 18:25 | 13.92564 | 100.61253 | 16 ft | 10 kts | 118° |
| 2026-04-21 18:25 | 13.92532 | 100.61312 | 16 ft | 8 kts | 120° |
| 2026-04-21 18:25 | 13.92516 | 100.61362 | 16 ft | 7 kts | 92° |
| 2026-04-21 18:26 | 13.92559 | 100.61406 | 16 ft | 12 kts | 29° |
| 2026-04-21 18:26 | 13.92644 | 100.61454 | 17 ft | 16 kts | 28° |
| 2026-04-21 18:26 | 13.92748 | 100.61511 | 17 ft | 15 kts | 30° |
| 2026-04-21 18:26 | 13.92780 | 100.61576 | 17 ft | 9 kts | 98° |
| 2026-04-21 18:27 | 13.92760 | 100.61617 | 17 ft | 0 kts | 120° |
| 2026-04-21 18:28 | 13.92757 | 100.61623 | 17 ft | 3 kts | 120° |
| 2026-04-21 18:28 | 13.92737 | 100.61656 | 18 ft | 8 kts | 126° |
| 2026-04-21 18:28 | 13.92675 | 100.61678 | 17 ft | 12 kts | 195° |
| 2026-04-21 18:29 | 13.92556 | 100.61611 | 17 ft | 43 kts | 210° |
| 2026-04-21 18:29 | 13.92082 | 100.61346 | 16 ft | 108 kts | 209° |
| 2026-04-21 18:29 | 13.91263 | 100.60888 | 19 ft | 158 kts | 208° |
| 2026-04-21 18:29 | 13.90225 | 100.60298 | 370 ft | 174 kts | 208° |
| 2026-04-21 18:30 | 13.89171 | 100.59699 | 1068 ft | 172 kts | 207° |
| 2026-04-21 18:30 | 13.88090 | 100.59124 | 1608 ft | 183 kts | 199° |
| 2026-04-21 18:30 | 13.86785 | 100.59078 | 1849 ft | 207 kts | 163° |
| 2026-04-21 18:30 | 13.85523 | 100.59983 | 2167 ft | 237 kts | 141° |
| 2026-04-21 18:31 | 13.84282 | 100.61204 | 2729 ft | 254 kts | 139° |
| 2026-04-21 18:31 | 13.83012 | 100.62502 | 3482 ft | 261 kts | 138° |
| 2026-04-21 18:31 | 13.81720 | 100.63831 | 4344 ft | 264 kts | 136° |
| 2026-04-21 18:31 | 13.80409 | 100.65177 | 5146 ft | 269 kts | 136° |
| 2026-04-21 18:32 | 13.79066 | 100.66546 | 5911 ft | 274 kts | 136° |
| 2026-04-21 18:32 | 13.77693 | 100.67933 | 6666 ft | 278 kts | 136° |
| 2026-04-21 18:32 | 13.76298 | 100.69338 | 7396 ft | 283 kts | 135° |
| 2026-04-21 18:32 | 13.74882 | 100.70766 | 8142 ft | 287 kts | 135° |
| 2026-04-21 18:33 | 13.73462 | 100.72195 | 8859 ft | 292 kts | 135° |
| 2026-04-21 18:33 | 13.71998 | 100.73663 | 9625 ft | 296 kts | 135° |
| 2026-04-21 18:33 | 13.70507 | 100.75160 | 10181 ft | 307 kts | 135° |
| 2026-04-21 18:33 | 13.68925 | 100.76753 | 10378 ft | 330 kts | 135° |
| 2026-04-21 18:34 | 13.67232 | 100.78457 | 10598 ft | 349 kts | 135° |
| 2026-04-21 18:34 | 13.65474 | 100.80224 | 11116 ft | 357 kts | 135° |
| 2026-04-21 18:34 | 13.63687 | 100.82013 | 11751 ft | 360 kts | 135° |
| 2026-04-21 18:34 | 13.61885 | 100.83814 | 12397 ft | 363 kts | 135° |
| 2026-04-21 18:35 | 13.60682 | 100.85017 | 12812 ft | 365 kts | 135° |
| 2026-04-21 18:35 | 13.58261 | 100.87442 | 13635 ft | 369 kts | 135° |
| 2026-04-21 18:35 | 13.56414 | 100.89293 | 14177 ft | 372 kts | 135° |
| 2026-04-21 18:35 | 13.54557 | 100.91158 | 14706 ft | 375 kts | 135° |
| 2026-04-21 18:36 | 13.52679 | 100.93042 | 15222 ft | 379 kts | 135° |
| 2026-04-21 18:36 | 13.50782 | 100.94943 | 15739 ft | 383 kts | 135° |
| 2026-04-21 18:36 | 13.48869 | 100.96859 | 16238 ft | 386 kts | 134° |
| 2026-04-21 18:36 | 13.46937 | 100.98792 | 16726 ft | 390 kts | 135° |
| 2026-04-21 18:37 | 13.44986 | 101.00741 | 17227 ft | 393 kts | 135° |
| 2026-04-21 18:37 | 13.43043 | 101.02682 | 17707 ft | 397 kts | 135° |
| 2026-04-21 18:37 | 13.41059 | 101.04665 | 18175 ft | 400 kts | 134° |
| 2026-04-21 18:37 | 13.39056 | 101.06670 | 18584 ft | 403 kts | 135° |
| 2026-04-21 18:38 | 13.37045 | 101.08683 | 19030 ft | 405 kts | 134° |
| 2026-04-21 18:38 | 13.35026 | 101.10702 | 19470 ft | 406 kts | 135° |
| 2026-04-21 18:38 | 13.32992 | 101.12731 | 19903 ft | 408 kts | 134° |
| 2026-04-21 18:38 | 13.30951 | 101.14767 | 20331 ft | 410 kts | 134° |
| 2026-04-21 18:39 | 13.28900 | 101.16814 | 20755 ft | 412 kts | 134° |
| 2026-04-21 18:39 | 13.26864 | 101.18845 | 21155 ft | 414 kts | 134° |
| 2026-04-21 18:39 | 13.24791 | 101.20913 | 21566 ft | 417 kts | 134° |
| 2026-04-21 18:39 | 13.22711 | 101.22992 | 21977 ft | 418 kts | 134° |
| 2026-04-21 18:40 | 13.20623 | 101.25079 | 22365 ft | 421 kts | 134° |
| 2026-04-21 18:40 | 13.18521 | 101.27177 | 22749 ft | 423 kts | 134° |
| 2026-04-21 18:40 | 13.17120 | 101.28574 | 23002 ft | 424 kts | 134° |
| 2026-04-21 18:40 | 13.14279 | 101.31403 | 23484 ft | 427 kts | 134° |
| 2026-04-21 18:41 | 13.12168 | 101.33507 | 23762 ft | 430 kts | 134° |
| 2026-04-21 18:41 | 13.10017 | 101.35651 | 24061 ft | 432 kts | 134° |
| 2026-04-21 18:41 | 13.07855 | 101.37803 | 24357 ft | 435 kts | 134° |
| 2026-04-21 18:41 | 13.05678 | 101.39967 | 24653 ft | 437 kts | 134° |
| 2026-04-21 18:42 | 13.03494 | 101.42140 | 24944 ft | 439 kts | 134° |
| 2026-04-21 18:42 | 13.01302 | 101.44328 | 25232 ft | 441 kts | 134° |
| 2026-04-21 18:42 | 12.99097 | 101.46527 | 25516 ft | 443 kts | 134° |
| 2026-04-21 18:42 | 12.96884 | 101.48731 | 25798 ft | 445 kts | 134° |
| 2026-04-21 18:43 | 12.94654 | 101.50948 | 26070 ft | 447 kts | 134° |
| 2026-04-21 18:43 | 12.92445 | 101.53142 | 26339 ft | 449 kts | 134° |
| 2026-04-21 18:43 | 12.90197 | 101.55376 | 26620 ft | 451 kts | 134° |
| 2026-04-21 18:43 | 12.87937 | 101.57621 | 26894 ft | 454 kts | 134° |
| 2026-04-21 18:44 | 12.85668 | 101.59875 | 27181 ft | 455 kts | 134° |
| 2026-04-21 18:44 | 12.83392 | 101.62136 | 27472 ft | 457 kts | 134° |
| 2026-04-21 18:44 | 12.81106 | 101.64407 | 27739 ft | 459 kts | 134° |
| 2026-04-21 18:44 | 12.78811 | 101.66687 | 27998 ft | 461 kts | 134° |
| 2026-04-21 18:45 | 12.76532 | 101.69009 | 28243 ft | 463 kts | 132° |
| 2026-04-21 18:45 | 12.74361 | 101.71386 | 28477 ft | 464 kts | 130° |
| 2026-04-21 18:45 | 12.72213 | 101.73866 | 28716 ft | 466 kts | 129° |
| 2026-04-21 18:45 | 12.70091 | 101.76381 | 28948 ft | 468 kts | 129° |
| 2026-04-21 18:46 | 12.67967 | 101.78906 | 29243 ft | 467 kts | 129° |
| 2026-04-21 18:46 | 12.65853 | 101.81389 | 29910 ft | 460 kts | 129° |
| 2026-04-21 18:46 | 12.63737 | 101.83837 | 30321 ft | 457 kts | 130° |
| 2026-04-21 18:46 | 12.61623 | 101.86253 | 30715 ft | 455 kts | 130° |
| 2026-04-21 18:47 | 12.59508 | 101.88656 | 31070 ft | 454 kts | 130° |
| 2026-04-21 18:47 | 12.57425 | 101.91021 | 31414 ft | 453 kts | 130° |
| 2026-04-21 18:47 | 12.55319 | 101.93417 | 31755 ft | 452 kts | 130° |
| 2026-04-21 18:47 | 12.53219 | 101.95811 | 32091 ft | 452 kts | 130° |
| 2026-04-21 18:48 | 12.51119 | 101.98207 | 32432 ft | 451 kts | 130° |
| 2026-04-21 18:48 | 12.49023 | 102.00598 | 32744 ft | 451 kts | 130° |
| 2026-04-21 18:48 | 12.46930 | 102.02985 | 32836 ft | 450 kts | 130° |
| 2026-04-21 18:49 | 12.42751 | 102.07753 | 32850 ft | 449 kts | 130° |
| 2026-04-21 18:49 | 12.39288 | 102.11708 | 32849 ft | 449 kts | 130° |
| 2026-04-21 18:50 | 12.34436 | 102.17236 | 32848 ft | 449 kts | 130° |
| 2026-04-21 18:50 | 12.30266 | 102.21993 | 32849 ft | 449 kts | 130° |
| 2026-04-21 18:51 | 12.26098 | 102.26756 | 32848 ft | 449 kts | 130° |
| 2026-04-21 18:51 | 12.21935 | 102.31489 | 32851 ft | 456 kts | 130° |
| 2026-04-21 18:52 | 12.17622 | 102.36386 | 32853 ft | 468 kts | 130° |
| 2026-04-21 18:52 | 12.13262 | 102.41351 | 32851 ft | 470 kts | 130° |
| 2026-04-21 18:53 | 12.08889 | 102.46329 | 32852 ft | 471 kts | 130° |
| 2026-04-21 18:53 | 12.04533 | 102.51270 | 32855 ft | 471 kts | 130° |
| 2026-04-21 18:54 | 12.00145 | 102.56240 | 32854 ft | 471 kts | 130° |
| 2026-04-21 18:54 | 11.95763 | 102.61211 | 32854 ft | 471 kts | 130° |
| 2026-04-21 18:55 | 11.92122 | 102.65343 | 32867 ft | 471 kts | 130° |
| 2026-04-21 18:55 | 11.87030 | 102.71121 | 32860 ft | 471 kts | 130° |
| 2026-04-21 18:56 | 11.82642 | 102.76090 | 32857 ft | 471 kts | 130° |
| 2026-04-21 18:56 | 11.80450 | 102.78571 | 32690 ft | 470 kts | 130° |
| 2026-04-21 18:56 | 11.78260 | 102.81047 | 32445 ft | 470 kts | 130° |
| 2026-04-21 18:56 | 11.76072 | 102.83521 | 32201 ft | 470 kts | 130° |
| 2026-04-21 18:57 | 11.73881 | 102.85998 | 31959 ft | 469 kts | 130° |
| 2026-04-21 18:57 | 11.72435 | 102.87635 | 31799 ft | 469 kts | 130° |
| 2026-04-21 18:57 | 11.69545 | 102.90909 | 31481 ft | 469 kts | 130° |
| 2026-04-21 18:57 | 11.67360 | 102.93385 | 31247 ft | 469 kts | 130° |
| 2026-04-21 18:58 | 11.65176 | 102.95858 | 31023 ft | 470 kts | 130° |
| 2026-04-21 18:58 | 11.62977 | 102.98323 | 30797 ft | 471 kts | 132° |
| 2026-04-21 18:58 | 11.60517 | 103.00539 | 30562 ft | 473 kts | 141° |
| 2026-04-21 18:58 | 11.58703 | 103.01780 | 30407 ft | 475 kts | 146° |
| 2026-04-21 18:59 | 11.55886 | 103.03531 | 30182 ft | 474 kts | 146° |
| 2026-04-21 18:59 | 11.53079 | 103.05284 | 29951 ft | 472 kts | 146° |
| 2026-04-21 18:59 | 11.49382 | 103.07608 | 29619 ft | 470 kts | 146° |
| 2026-04-21 18:59 | 11.46609 | 103.09356 | 29354 ft | 468 kts | 146° |
| 2026-04-21 19:00 | 11.44742 | 103.10534 | 29171 ft | 467 kts | 146° |
| 2026-04-21 19:00 | 11.42023 | 103.12245 | 28915 ft | 465 kts | 146° |
| 2026-04-21 19:00 | 11.39275 | 103.13969 | 28564 ft | 461 kts | 146° |
| 2026-04-21 19:00 | 11.35635 | 103.16249 | 27674 ft | 457 kts | 146° |
| 2026-04-21 19:01 | 11.32937 | 103.17940 | 27034 ft | 454 kts | 146° |
| 2026-04-21 19:01 | 11.31160 | 103.19054 | 26615 ft | 452 kts | 146° |
| 2026-04-21 19:01 | 11.28490 | 103.20730 | 25984 ft | 449 kts | 146° |
| 2026-04-21 19:01 | 11.24979 | 103.22930 | 25150 ft | 446 kts | 146° |
| 2026-04-21 19:02 | 11.22346 | 103.24583 | 24525 ft | 444 kts | 146° |
| 2026-04-21 19:02 | 11.20574 | 103.25698 | 24120 ft | 442 kts | 146° |
| 2026-04-21 19:02 | 11.18001 | 103.27317 | 23531 ft | 440 kts | 146° |
| 2026-04-21 19:02 | 11.15406 | 103.28943 | 22889 ft | 436 kts | 146° |
| 2026-04-21 19:03 | 11.12832 | 103.30547 | 22335 ft | 431 kts | 146° |
| 2026-04-21 19:03 | 11.10299 | 103.32124 | 21944 ft | 422 kts | 146° |
| 2026-04-21 19:03 | 11.07824 | 103.33669 | 21839 ft | 414 kts | 146° |
| 2026-04-21 19:03 | 11.05371 | 103.35204 | 21404 ft | 412 kts | 146° |
| 2026-04-21 19:04 | 11.02916 | 103.36740 | 20106 ft | 419 kts | 147° |
| 2026-04-21 19:04 | 10.99649 | 103.38781 | 19627 ft | 408 kts | 147° |
| 2026-04-21 19:04 | 10.98023 | 103.39798 | 19340 ft | 404 kts | 147° |
| 2026-04-21 19:04 | 10.95671 | 103.41269 | 18835 ft | 401 kts | 147° |
| 2026-04-21 19:05 | 10.93306 | 103.42751 | 18316 ft | 398 kts | 147° |
| 2026-04-21 19:05 | 10.90950 | 103.44227 | 17760 ft | 397 kts | 147° |
| 2026-04-21 19:05 | 10.88608 | 103.45692 | 17233 ft | 393 kts | 147° |
| 2026-04-21 19:05 | 10.86285 | 103.47144 | 16707 ft | 390 kts | 147° |
| 2026-04-21 19:06 | 10.83978 | 103.48586 | 16182 ft | 388 kts | 147° |
| 2026-04-21 19:06 | 10.81685 | 103.50019 | 15665 ft | 386 kts | 147° |
| 2026-04-21 19:06 | 10.79403 | 103.51444 | 15142 ft | 384 kts | 148° |
| 2026-04-21 19:06 | 10.77132 | 103.52862 | 14622 ft | 383 kts | 148° |
| 2026-04-21 19:07 | 10.74896 | 103.54258 | 14099 ft | 381 kts | 148° |
| 2026-04-21 19:07 | 10.72637 | 103.55668 | 13555 ft | 380 kts | 148° |
| 2026-04-21 19:07 | 10.70388 | 103.57070 | 12996 ft | 378 kts | 148° |
| 2026-04-21 19:07 | 10.68154 | 103.58465 | 12464 ft | 375 kts | 148° |
| 2026-04-21 19:08 | 10.65939 | 103.59848 | 11920 ft | 372 kts | 148° |
| 2026-04-21 19:08 | 10.63740 | 103.61221 | 11380 ft | 370 kts | 147° |
| 2026-04-21 19:08 | 10.61555 | 103.62583 | 10833 ft | 367 kts | 148° |
| 2026-04-21 19:08 | 10.59398 | 103.63945 | 10374 ft | 361 kts | 144° |
| 2026-04-21 19:09 | 10.57523 | 103.65550 | 10248 ft | 345 kts | 136° |
| 2026-04-21 19:09 | 10.55816 | 103.67147 | 10143 ft | 331 kts | 136° |
| 2026-04-21 19:09 | 10.54147 | 103.68697 | 10027 ft | 319 kts | 137° |
| 2026-04-21 19:09 | 10.52537 | 103.70188 | 9912 ft | 307 kts | 137° |
| 2026-04-21 19:10 | 10.50979 | 103.71628 | 9726 ft | 299 kts | 136° |
| 2026-04-21 19:10 | 10.49449 | 103.73047 | 9360 ft | 297 kts | 137° |
| 2026-04-21 19:10 | 10.47925 | 103.74462 | 9001 ft | 295 kts | 136° |
| 2026-04-21 19:10 | 10.46411 | 103.75871 | 8612 ft | 294 kts | 137° |
| 2026-04-21 19:11 | 10.44855 | 103.77205 | 8192 ft | 294 kts | 146° |
| 2026-04-21 19:11 | 10.43053 | 103.78095 | 7880 ft | 291 kts | 161° |
| 2026-04-21 19:11 | 10.41128 | 103.78706 | 7518 ft | 289 kts | 162° |
| 2026-04-21 19:11 | 10.39220 | 103.79313 | 7213 ft | 285 kts | 162° |
| 2026-04-21 19:12 | 10.37337 | 103.79914 | 6931 ft | 283 kts | 162° |
| 2026-04-21 19:12 | 10.35470 | 103.80510 | 6649 ft | 280 kts | 162° |
| 2026-04-21 19:12 | 10.33618 | 103.81104 | 6371 ft | 278 kts | 162° |
| 2026-04-21 19:12 | 10.31774 | 103.81692 | 6093 ft | 277 kts | 164° |
| 2026-04-21 19:13 | 10.29875 | 103.81976 | 5996 ft | 276 kts | 179° |
| 2026-04-21 19:13 | 10.27993 | 103.81802 | 5835 ft | 274 kts | 188° |
| 2026-04-21 19:13 | 10.26214 | 103.81145 | 5376 ft | 276 kts | 214° |
| 2026-04-21 19:13 | 10.24920 | 103.79717 | 4936 ft | 279 kts | 241° |
| 2026-04-21 19:14 | 10.24459 | 103.77847 | 4775 ft | 270 kts | 271° |
| 2026-04-21 19:14 | 10.24606 | 103.75990 | 4661 ft | 258 kts | 275° |
| 2026-04-21 19:14 | 10.24754 | 103.74209 | 4530 ft | 247 kts | 274° |
| 2026-04-21 19:14 | 10.24901 | 103.72496 | 4313 ft | 241 kts | 274° |
| 2026-04-21 19:15 | 10.25050 | 103.70834 | 4060 ft | 237 kts | 274° |
| 2026-04-21 19:15 | 10.25202 | 103.69178 | 3787 ft | 234 kts | 274° |
| 2026-04-21 19:15 | 10.25043 | 103.67572 | 3546 ft | 225 kts | 243° |
| 2026-04-21 19:15 | 10.24080 | 103.66377 | 3501 ft | 220 kts | 208° |
| 2026-04-21 19:16 | 10.22652 | 103.65963 | 3495 ft | 214 kts | 175° |
| 2026-04-21 19:16 | 10.21236 | 103.66388 | 3500 ft | 215 kts | 154° |
| 2026-04-21 19:16 | 10.19902 | 103.67088 | 3500 ft | 216 kts | 152° |
| 2026-04-21 19:16 | 10.18567 | 103.67828 | 3505 ft | 220 kts | 151° |
| 2026-04-21 19:17 | 10.15943 | 103.69381 | 3505 ft | 221 kts | 137° |
| 2026-04-21 19:17 | 10.15154 | 103.70700 | 3503 ft | 223 kts | 105° |
| 2026-04-21 19:17 | 10.15269 | 103.72248 | 3502 ft | 225 kts | 70° |
| 2026-04-21 19:18 | 10.15920 | 103.73648 | 3504 ft | 212 kts | 68° |
| 2026-04-21 19:18 | 10.16521 | 103.74987 | 3502 ft | 206 kts | 68° |
| 2026-04-21 19:18 | 10.17110 | 103.76307 | 3502 ft | 205 kts | 69° |
| 2026-04-21 19:18 | 10.17698 | 103.77625 | 3504 ft | 205 kts | 68° |
| 2026-04-21 19:19 | 10.18287 | 103.78948 | 3443 ft | 206 kts | 70° |
| 2026-04-21 19:19 | 10.18665 | 103.80322 | 3255 ft | 201 kts | 86° |
| 2026-04-21 19:19 | 10.18682 | 103.81719 | 3034 ft | 200 kts | 96° |
| 2026-04-21 19:19 | 10.18575 | 103.83130 | 2784 ft | 201 kts | 99° |
| 2026-04-21 19:20 | 10.18440 | 103.84552 | 2519 ft | 203 kts | 99° |
| 2026-04-21 19:20 | 10.18299 | 103.85987 | 2261 ft | 205 kts | 99° |
| 2026-04-21 19:20 | 10.18163 | 103.87379 | 2012 ft | 191 kts | 98° |
| 2026-04-21 19:20 | 10.18036 | 103.88680 | 1761 ft | 180 kts | 99° |
| 2026-04-21 19:21 | 10.17914 | 103.89916 | 1530 ft | 172 kts | 99° |
| 2026-04-21 19:21 | 10.17798 | 103.91089 | 1338 ft | 160 kts | 99° |
| 2026-04-21 19:21 | 10.17692 | 103.92164 | 1125 ft | 148 kts | 99° |
| 2026-04-21 19:21 | 10.17592 | 103.93174 | 933 ft | 143 kts | 99° |
| 2026-04-21 19:22 | 10.17494 | 103.94158 | 774 ft | 141 kts | 97° |
| 2026-04-21 19:22 | 10.17396 | 103.95147 | 600 ft | 140 kts | 96° |
| 2026-04-21 19:22 | 10.17299 | 103.96125 | 420 ft | 139 kts | 96° |
| 2026-04-21 19:22 | 10.17208 | 103.97107 | 226 ft | 140 kts | 94° |
| 2026-04-21 19:23 | 10.17105 | 103.98082 | 72 ft | 138 kts | 94° |
| 2026-04-21 19:23 | 10.17025 | 103.98918 | 68 ft | 95 kts | 96° |
| 2026-04-21 19:23 | 10.16976 | 103.99411 | 63 ft | 51 kts | 96° |
| 2026-04-21 19:23 | 10.16941 | 103.99765 | 62 ft | 49 kts | 98° |
| 2026-04-21 19:24 | 10.16832 | 104.00033 | 60 ft | 21 kts | 131° |
| 2026-04-21 19:24 | 10.16756 | 104.00140 | 64 ft | 16 kts | 138° |
| 2026-04-21 19:24 | 10.16644 | 104.00157 | 66 ft | 17 kts | 186° |
| 2026-04-21 19:24 | 10.16525 | 104.00144 | 66 ft | 16 kts | 189° |
| 2026-04-21 19:25 | 10.16488 | 104.00071 | 63 ft | 12 kts | 276° |
| 2026-04-21 19:25 | 10.16494 | 104.00002 | 66 ft | 6 kts | 265° |
| 2026-04-21 19:25 | 10.16483 | 103.99987 | 57 ft | 1 kts | 211° |
| 2026-04-21 19:25 | 10.16460 | 103.99982 | 62 ft | 7 kts | 187° |
| 2026-04-21 19:26 | 10.16413 | 103.99977 | 66 ft | 6 kts | 186° |
| 2026-04-21 19:26 | 10.16395 | 103.99975 | 61 ft | 0 kts | 186° |